Time;durP1;ratioP1;P1;durP2;ratioP2;P2;SDS_P1;SDS_P2;PMS_P1;PMS_P2;Temp;Humidity;BMP_temperature;BMP_pressure;BME280_temperature;BME280_humidity;BME280_pressure;Samples;Min_cycle;Max_cycle;Signal;HPM_P1;HPM_P2
2021/03/13 00:01:10;;;;;;;1.05;0.50;;;11.20;76.00;;;;;;5136732;27;20050;-52
2021/03/13 00:03:36;;;;;;;0.40;0.40;;;11.20;76.00;;;;;;5135043;27;20061;-50
2021/03/13 00:06:02;;;;;;;0.45;0.45;;;11.20;76.00;;;;;;5136854;27;20046;-49
2021/03/13 00:08:28;;;;;;;1.10;0.60;;;11.20;76.00;;;;;;5136449;27;20534;-54
2021/03/13 00:10:54;;;;;;;0.93;0.70;;;11.20;76.00;;;;;;5136620;27;20091;-50
2021/03/13 00:13:19;;;;;;;1.42;0.63;;;11.20;76.00;;;;;;5134846;27;20045;-49
2021/03/13 00:15:46;;;;;;;1.55;0.60;;;11.20;76.00;;;;;;5136658;27;20047;-49
2021/03/13 00:18:12;;;;;;;1.17;0.47;;;11.20;76.10;;;;;;5136545;27;20046;-48
2021/03/13 00:20:40;;;;;;;0.95;0.80;;;11.20;76.10;;;;;;5136642;27;20043;-46
2021/03/13 00:23:06;;;;;;;1.60;0.70;;;11.20;76.10;;;;;;5134927;27;20548;-49
2021/03/13 00:25:36;;;;;;;2.05;0.57;;;11.20;76.10;;;;;;5134775;27;20478;-49
2021/03/13 00:28:03;;;;;;;1.13;0.60;;;11.20;76.10;;;;;;5136274;27;20051;-49
2021/03/13 00:30:34;;;;;;;1.35;0.70;;;11.20;76.10;;;;;;5136158;27;20078;-49
2021/03/13 00:33:09;;;;;;;0.57;0.55;;;11.20;76.10;;;;;;5136428;27;20388;-50
2021/03/13 00:35:35;;;;;;;0.90;0.65;;;11.20;76.10;;;;;;5134729;27;20054;-51
2021/03/13 00:38:02;;;;;;;0.63;0.50;;;11.20;76.10;;;;;;5136072;27;20055;-50
2021/03/13 00:40:29;;;;;;;0.68;0.50;;;11.20;76.80;;;;;;5135887;27;20118;-47
2021/03/13 00:42:56;;;;;;;1.48;0.60;;;11.20;76.10;;;;;;5136042;27;20047;-52
2021/03/13 00:45:24;;;;;;;0.85;0.52;;;11.20;76.10;;;;;;5134381;27;20129;-45
2021/03/13 00:47:50;;;;;;;1.90;0.63;;;11.20;76.10;;;;;;5121862;27;20491;-45
2021/03/13 00:50:17;;;;;;;1.33;0.43;;;11.20;76.10;;;;;;5115472;28;20114;-45
2021/03/13 00:52:43;;;;;;;2.40;0.80;;;11.20;76.20;;;;;;5115339;28;20044;-52
2021/03/13 00:55:10;;;;;;;0.90;0.60;;;11.20;76.20;;;;;;5116041;27;20130;-46
2021/03/13 00:57:36;;;;;;;1.40;0.75;;;11.20;76.10;;;;;;5115130;28;20408;-47
2021/03/13 01:00:05;;;;;;;2.30;0.77;;;11.20;76.20;;;;;;5115071;28;20059;-48
2021/03/13 01:02:30;;;;;;;0.75;0.60;;;11.20;76.10;;;;;;5115279;28;20062;-48
2021/03/13 01:04:56;;;;;;;1.08;0.60;;;11.20;76.20;;;;;;5115157;28;20490;-46
2021/03/13 01:07:22;;;;;;;1.38;0.65;;;11.20;76.10;;;;;;5115972;27;20105;-50
2021/03/13 01:09:47;;;;;;;1.02;0.70;;;11.20;76.10;;;;;;5115069;28;20411;-51
2021/03/13 01:12:13;;;;;;;2.85;0.95;;;11.20;76.20;;;;;;5114498;28;20048;-49
2021/03/13 01:14:39;;;;;;;0.68;0.60;;;11.20;76.20;;;;;;5114706;28;20048;-46
2021/03/13 01:17:05;;;;;;;2.10;0.70;;;11.20;76.20;;;;;;5116040;27;20066;-48
2021/03/13 01:19:30;;;;;;;1.70;0.50;;;11.20;76.20;;;;;;5114674;28;20384;-49
2021/03/13 01:21:56;;;;;;;2.63;0.60;;;11.20;76.20;;;;;;5114815;28;20067;-46
2021/03/13 01:24:22;;;;;;;1.25;0.65;;;11.20;76.20;;;;;;5114740;28;20050;-45
2021/03/13 01:26:48;;;;;;;0.80;0.50;;;11.20;76.20;;;;;;5114112;28;20047;-44
2021/03/13 01:29:14;;;;;;;3.45;0.65;;;11.20;76.20;;;;;;5115960;27;20040;-48
2021/03/13 01:31:40;;;;;;;1.30;0.70;;;11.20;76.20;;;;;;5114669;28;20104;-46
2021/03/13 01:34:06;;;;;;;1.80;0.95;;;11.20;76.20;;;;;;5114274;28;20043;-45
2021/03/13 01:36:32;;;;;;;0.70;0.70;;;11.20;76.20;;;;;;5114497;28;20044;-51
2021/03/13 01:38:58;;;;;;;1.67;1.05;;;11.20;76.20;;;;;;5115763;27;20047;-49
2021/03/13 01:41:24;;;;;;;1.58;0.70;;;11.20;76.20;;;;;;5113988;28;20063;-46
2021/03/13 01:43:50;;;;;;;1.63;1.17;;;11.20;76.20;;;;;;5114096;28;20061;-50
2021/03/13 01:46:16;;;;;;;1.80;0.80;;;11.20;76.20;;;;;;5114124;28;20090;-52
2021/03/13 01:48:50;;;;;;;2.25;0.90;;;11.20;76.20;;;;;;5115188;27;20479;-48
2021/03/13 01:51:16;;;;;;;1.70;0.80;;;11.20;76.20;;;;;;5124129;27;20047;-49
2021/03/13 01:53:42;;;;;;;0.73;0.55;;;11.20;76.20;;;;;;5134545;27;20483;-48
2021/03/13 01:56:08;;;;;;;2.42;0.90;;;11.20;76.20;;;;;;5134794;27;20049;-51
2021/03/13 01:58:34;;;;;;;1.35;0.82;;;11.20;76.20;;;;;;5134107;27;20047;-51
2021/03/13 02:00:59;;;;;;;2.08;0.77;;;11.20;76.20;;;;;;5132731;27;20058;-51
2021/03/13 02:03:26;;;;;;;1.20;0.60;;;11.20;76.20;;;;;;5134256;27;20062;-53
2021/03/13 02:05:52;;;;;;;0.85;0.60;;;11.20;76.20;;;;;;5134394;27;20501;-50
2021/03/13 02:08:38;;;;;;;1.58;0.70;;;11.20;76.20;;;;;;5134538;27;20066;-48
2021/03/13 02:11:33;;;;;;;0.82;0.60;;;11.20;76.20;;;;;;5132606;27;20051;-48
2021/03/13 02:14:16;;;;;;;1.58;0.80;;;11.20;76.20;;;;;;5134194;27;20130;-50
2021/03/13 02:16:56;;;;;;;0.60;0.60;;;11.20;76.20;;;;;;5134248;27;20043;-50
2021/03/13 02:19:44;;;;;;;1.65;0.73;;;11.20;76.20;;;;;;5134158;27;20422;-51
2021/03/13 02:22:13;;;;;;;2.60;1.13;;;11.10;76.20;;;;;;5132632;27;20051;-50
2021/03/13 02:25:12;;;;;;;1.63;0.57;;;11.10;76.20;;;;;;5134142;27;20051;-49
2021/03/13 02:28:04;;;;;;;1.90;0.80;;;11.20;76.20;;;;;;5134294;27;20083;-51
2021/03/13 02:30:31;;;;;;;1.65;0.82;;;11.20;76.20;;;;;;5134037;27;20047;-51
2021/03/13 02:33:15;;;;;;;0.75;0.70;;;11.10;76.20;;;;;;5132492;27;20119;-49
2021/03/13 02:35:46;;;;;;;1.65;0.70;;;11.20;76.20;;;;;;5134079;27;20047;-49
2021/03/13 02:38:24;;;;;;;1.42;0.90;;;11.10;76.20;;;;;;5133933;27;20058;-47
2021/03/13 02:40:51;;;;;;;3.00;0.95;;;11.10;76.20;;;;;;5133904;27;20051;-50
2021/03/13 02:43:21;;;;;;;3.53;1.00;;;11.10;76.20;;;;;;5131888;27;20039;-48
2021/03/13 02:45:56;;;;;;;1.30;0.73;;;11.20;76.30;;;;;;5133566;27;20047;-48
2021/03/13 02:48:23;;;;;;;0.82;0.73;;;11.10;76.20;;;;;;5135232;27;20043;-48
2021/03/13 02:50:50;;;;;;;2.08;0.95;;;11.10;76.20;;;;;;5140784;27;20047;-52
2021/03/13 02:53:18;;;;;;;2.70;0.90;;;11.20;76.30;;;;;;5138788;27;20050;-49
2021/03/13 02:55:44;;;;;;;1.55;0.70;;;11.10;76.20;;;;;;5125779;27;20051;-52
2021/03/13 02:58:11;;;;;;;1.30;0.75;;;11.20;76.30;;;;;;5120177;27;20051;-48
2021/03/13 03:00:39;;;;;;;1.13;0.80;;;11.10;76.20;;;;;;5119517;27;20083;-50
2021/03/13 03:03:05;;;;;;;1.00;0.95;;;11.20;76.30;;;;;;5120036;27;20072;-51
2021/03/13 03:05:33;;;;;;;1.98;0.95;;;11.20;76.30;;;;;;5119898;27;20048;-50
2021/03/13 03:08:05;;;;;;;3.00;1.10;;;11.10;76.20;;;;;;5119939;27;20046;-53
2021/03/13 03:10:34;;;;;;;1.85;0.82;;;11.20;76.30;;;;;;5119983;27;20495;-49
2021/03/13 03:13:01;;;;;;;2.88;0.90;;;11.20;76.30;;;;;;5119766;27;20547;-51
2021/03/13 03:15:30;;;;;;;1.35;1.08;;;11.20;76.30;;;;;;5120790;27;20050;-50
2021/03/13 03:18:00;;;;;;;1.52;0.85;;;11.20;76.30;;;;;;5119888;27;20043;-51
2021/03/13 03:20:29;;;;;;;1.45;0.80;;;11.10;76.20;;;;;;5119863;27;20051;-48
2021/03/13 03:22:55;;;;;;;1.63;0.80;;;11.20;76.30;;;;;;5119876;27;20071;-51
2021/03/13 03:25:21;;;;;;;1.33;0.77;;;11.20;76.30;;;;;;5120861;27;20443;-48
2021/03/13 03:27:52;;;;;;;1.42;1.00;;;11.20;76.30;;;;;;5119764;27;20113;-48
2021/03/13 03:30:29;;;;;;;1.58;0.80;;;11.20;76.30;;;;;;5119647;27;20100;-54
2021/03/13 03:32:57;;;;;;;1.63;0.80;;;11.20;76.30;;;;;;5119604;27;20505;-48
2021/03/13 03:35:25;;;;;;;1.48;1.00;;;11.20;76.30;;;;;;5124092;27;20482;-45
2021/03/13 03:37:56;;;;;;;1.13;0.70;;;11.20;76.20;;;;;;5140491;27;20055;-48
2021/03/13 03:40:24;;;;;;;1.48;0.90;;;11.20;76.30;;;;;;5140130;27;20487;-48
2021/03/13 03:43:23;;;;;;;2.67;1.02;;;11.20;76.30;;;;;;5139478;27;20049;-51
2021/03/13 03:45:57;;;;;;;0.77;0.77;;;11.20;76.30;;;;;;5110784;28;20047;-50
2021/03/13 03:48:24;;;;;;;3.13;0.88;;;11.20;76.30;;;;;;5119425;27;20495;-51
2021/03/13 03:50:50;;;;;;;2.13;0.93;;;11.20;76.90;;;;;;5119941;27;20051;-47
2021/03/13 03:53:23;;;;;;;0.85;0.80;;;11.20;76.30;;;;;;5119690;27;20490;-48
2021/03/13 03:55:53;;;;;;;2.08;0.80;;;11.20;76.30;;;;;;5124420;27;20470;-45
2021/03/13 03:58:25;;;;;;;2.92;1.05;;;11.20;76.30;;;;;;5130953;27;20104;-47
2021/03/13 04:00:53;;;;;;;1.52;1.00;;;11.30;76.30;;;;;;5116065;27;20139;-44
2021/03/13 04:03:21;;;;;;;2.03;0.90;;;11.20;76.30;;;;;;5116130;28;20046;-44
2021/03/13 04:05:47;;;;;;;1.02;0.80;;;11.20;76.30;;;;;;5117205;27;20047;-51
2021/03/13 04:08:17;;;;;;;1.65;0.90;;;11.10;76.20;;;;;;5116054;28;20068;-46
2021/03/13 04:10:45;;;;;;;2.00;0.82;;;11.20;76.30;;;;;;5116122;28;20490;-47
2021/03/13 04:13:12;;;;;;;1.95;1.30;;;11.20;76.30;;;;;;5116028;28;20103;-55
2021/03/13 04:15:43;;;;;;;0.75;0.70;;;11.20;76.30;;;;;;5117127;27;20040;-53
2021/03/13 04:18:09;;;;;;;1.05;0.80;;;11.10;76.20;;;;;;5115526;28;20510;-48
2021/03/13 04:20:37;;;;;;;1.02;0.60;;;11.20;76.30;;;;;;5116070;28;20116;-51
2021/03/13 04:23:04;;;;;;;1.13;0.90;;;11.20;76.30;;;;;;5115758;28;20145;-49
2021/03/13 04:25:31;;;;;;;2.63;1.13;;;11.20;76.30;;;;;;5116714;27;20047;-48
2021/03/13 04:27:58;;;;;;;1.90;0.90;;;11.20;76.30;;;;;;5116009;28;20538;-46
2021/03/13 04:30:24;;;;;;;1.83;1.10;;;11.20;76.30;;;;;;5115924;28;20047;-49
2021/03/13 04:32:52;;;;;;;0.77;0.70;;;11.20;76.30;;;;;;5115461;28;20051;-52
2021/03/13 04:35:20;;;;;;;0.60;0.60;;;11.20;76.30;;;;;;5115532;28;20502;-52
2021/03/13 04:37:47;;;;;;;1.02;0.80;;;11.20;76.30;;;;;;5116618;27;20047;-49
2021/03/13 04:40:14;;;;;;;2.03;0.90;;;11.20;76.30;;;;;;5115320;28;20043;-49
2021/03/13 04:42:42;;;;;;;1.33;0.73;;;11.20;76.30;;;;;;5115645;28;20068;-52
2021/03/13 04:45:12;;;;;;;1.10;0.90;;;11.20;76.30;;;;;;5115648;28;20047;-50
2021/03/13 04:47:41;;;;;;;0.98;0.68;;;11.20;76.30;;;;;;5116659;27;20063;-47
2021/03/13 04:50:08;;;;;;;0.90;0.80;;;11.20;76.20;;;;;;5114869;28;20532;-48
2021/03/13 04:52:34;;;;;;;2.08;1.02;;;11.20;76.20;;;;;;5115253;28;20044;-52
2021/03/13 04:55:00;;;;;;;1.45;1.00;;;11.20;76.20;;;;;;5115333;28;20492;-45
2021/03/13 04:57:25;;;;;;;1.45;0.98;;;11.20;76.30;;;;;;5115032;28;20039;-50
2021/03/13 04:59:51;;;;;;;1.58;0.82;;;11.20;76.30;;;;;;5120166;27;20054;-51
2021/03/13 05:02:17;;;;;;;1.08;0.75;;;11.20;76.20;;;;;;5135632;27;20391;-51
2021/03/13 05:04:43;;;;;;;0.63;0.63;;;11.20;76.20;;;;;;5135224;27;20043;-50
2021/03/13 05:07:09;;;;;;;1.17;0.85;;;11.20;76.30;;;;;;5135549;27;20047;-50
2021/03/13 05:09:34;;;;;;;1.33;0.70;;;11.20;76.20;;;;;;5133789;27;20523;-50
2021/03/13 05:12:01;;;;;;;1.58;0.80;;;11.20;76.30;;;;;;5134967;27;20077;-52
2021/03/13 05:14:27;;;;;;;0.85;0.68;;;11.20;76.20;;;;;;5135641;27;20122;-48
2021/03/13 05:16:53;;;;;;;0.95;0.55;;;11.20;76.20;;;;;;5135497;27;20136;-51
2021/03/13 05:19:18;;;;;;;0.95;0.70;;;11.20;76.20;;;;;;5133183;27;20066;-48
2021/03/13 05:21:44;;;;;;;1.70;0.90;;;11.20;76.20;;;;;;5135217;27;20043;-50
2021/03/13 05:24:10;;;;;;;0.85;0.80;;;11.20;76.80;;;;;;5135217;27;20078;-50
2021/03/13 05:26:36;;;;;;;1.15;0.82;;;11.10;76.20;;;;;;5134938;27;20047;-46
2021/03/13 05:29:01;;;;;;;0.85;0.60;;;11.20;76.20;;;;;;5135344;27;20047;-49
2021/03/13 05:31:27;;;;;;;0.77;0.60;;;11.20;76.20;;;;;;5133443;27;20074;-50
2021/03/13 05:33:53;;;;;;;0.75;0.65;;;11.20;76.20;;;;;;5135010;27;20441;-48
2021/03/13 05:36:18;;;;;;;0.82;0.55;;;11.20;76.20;;;;;;5134780;27;20046;-47
2021/03/13 05:38:44;;;;;;;1.13;0.82;;;11.20;76.20;;;;;;5134855;27;20072;-46
2021/03/13 05:41:10;;;;;;;1.17;0.88;;;11.20;76.20;;;;;;5133062;27;20126;-52
2021/03/13 05:43:38;;;;;;;0.73;0.60;;;11.20;76.20;;;;;;5135079;27;20095;-49
2021/03/13 05:46:06;;;;;;;0.82;0.80;;;11.20;76.20;;;;;;5134934;27;20051;-49
2021/03/13 05:48:34;;;;;;;0.85;0.70;;;11.10;76.20;;;;;;5134895;27;20379;-50
2021/03/13 05:51:02;;;;;;;1.17;0.90;;;11.20;76.30;;;;;;5132757;27;20751;-48
2021/03/13 05:53:30;;;;;;;0.80;0.80;;;11.20;76.20;;;;;;5134687;27;20063;-45
2021/03/13 05:55:56;;;;;;;1.30;0.82;;;11.20;76.20;;;;;;5134610;27;20102;-52
2021/03/13 05:58:22;;;;;;;1.45;0.80;;;11.20;76.20;;;;;;5134538;27;20054;-47
2021/03/13 06:00:51;;;;;;;1.42;0.90;;;11.20;76.20;;;;;;5134232;27;20111;-50
2021/03/13 06:03:17;;;;;;;1.50;0.70;;;11.20;76.20;;;;;;5132560;27;20043;-48
2021/03/13 06:05:46;;;;;;;0.73;0.70;;;11.10;76.20;;;;;;5134086;27;20118;-46
2021/03/13 06:08:15;;;;;;;1.00;0.70;;;11.20;76.20;;;;;;5134259;27;20431;-49
2021/03/13 06:10:41;;;;;;;2.03;0.88;;;11.20;76.90;;;;;;5133912;27;20498;-48
2021/03/13 06:13:07;;;;;;;0.75;0.65;;;11.20;76.20;;;;;;5131936;27;20479;-55
2021/03/13 06:15:32;;;;;;;1.38;0.70;;;11.20;76.20;;;;;;5133493;27;20051;-48
2021/03/13 06:18:00;;;;;;;1.40;0.60;;;11.20;76.20;;;;;;5133369;27;20049;-44
2021/03/13 06:20:34;;;;;;;1.27;0.60;;;11.20;76.30;;;;;;5133439;27;20099;-49
2021/03/13 06:23:12;;;;;;;1.05;0.70;;;11.20;76.20;;;;;;5131691;27;20071;-52
2021/03/13 06:25:37;;;;;;;1.42;0.88;;;11.20;76.20;;;;;;5134045;27;20043;-47
2021/03/13 06:28:20;;;;;;;1.30;0.75;;;11.20;76.20;;;;;;5133995;27;20130;-54
2021/03/13 06:30:48;;;;;;;0.75;0.68;;;11.20;76.20;;;;;;5134188;27;20057;-54
2021/03/13 06:33:24;;;;;;;0.82;0.80;;;11.20;76.20;;;;;;5133997;27;20478;-48
2021/03/13 06:35:51;;;;;;;0.82;0.60;;;11.20;76.20;;;;;;5133677;27;20479;-53
2021/03/13 06:38:20;;;;;;;0.70;0.70;;;11.20;76.20;;;;;;5133856;27;20043;-46
2021/03/13 06:40:51;;;;;;;0.80;0.65;;;11.20;76.20;;;;;;5134190;27;20139;-48
2021/03/13 06:43:23;;;;;;;1.05;0.55;;;11.20;76.30;;;;;;5133780;27;20066;-49
2021/03/13 06:46:15;;;;;;;0.88;0.60;;;11.20;76.30;;;;;;5118354;27;20051;-49
2021/03/13 06:48:45;;;;;;;1.45;0.70;;;11.20;76.30;;;;;;5113260;28;20098;-49
2021/03/13 06:51:30;;;;;;;0.93;0.77;;;11.20;76.30;;;;;;5113305;28;20506;-49
2021/03/13 06:54:02;;;;;;;0.40;0.40;;;11.20;76.30;;;;;;5113385;28;20051;-47
2021/03/13 06:56:29;;;;;;;0.77;0.70;;;11.20;76.30;;;;;;5114226;28;20047;-48
2021/03/13 06:58:55;;;;;;;0.80;0.80;;;11.10;76.20;;;;;;5113063;28;20403;-50
2021/03/13 07:01:31;;;;;;;0.93;0.70;;;11.20;76.30;;;;;;5113179;28;20043;-46
2021/03/13 07:03:58;;;;;;;0.40;0.40;;;11.20;76.30;;;;;;5113337;28;20043;-50
2021/03/13 07:06:24;;;;;;;1.05;0.50;;;11.20;76.30;;;;;;5114315;28;20391;-46
2021/03/13 07:08:52;;;;;;;0.60;0.50;;;11.20;76.30;;;;;;5112891;28;20055;-49
2021/03/13 07:11:22;;;;;;;0.60;0.50;;;11.20;76.30;;;;;;5113065;28;20044;-56
2021/03/13 07:13:55;;;;;;;0.70;0.57;;;11.20;76.30;;;;;;5112992;28;20047;-46
2021/03/13 07:16:22;;;;;;;0.70;0.57;;;11.20;76.40;;;;;;5114856;28;20039;-47
2021/03/13 07:18:48;;;;;;;0.60;0.60;;;11.20;76.40;;;;;;5119650;27;20036;-48
2021/03/13 07:21:15;;;;;;;0.50;0.50;;;11.20;76.40;;;;;;5133955;27;20081;-50
2021/03/13 07:23:48;;;;;;;0.52;0.50;;;11.10;76.20;;;;;;5125800;27;20114;-49
2021/03/13 07:26:15;;;;;;;0.52;0.40;;;11.20;76.30;;;;;;5118494;27;20127;-45
2021/03/13 07:28:43;;;;;;;0.75;0.73;;;11.20;76.30;;;;;;5119176;28;20048;-51
2021/03/13 07:31:10;;;;;;;0.40;0.40;;;11.20;76.30;;;;;;5113213;28;20139;-48
2021/03/13 07:33:39;;;;;;;0.77;0.50;;;11.20;76.30;;;;;;5120630;28;20070;-50
2021/03/13 07:36:16;;;;;;;0.52;0.50;;;11.20;76.30;;;;;;5136807;27;20047;-49
2021/03/13 07:38:43;;;;;;;0.52;0.45;;;11.20;76.30;;;;;;5135551;27;20471;-53
2021/03/13 07:41:11;;;;;;;0.52;0.40;;;11.20;76.30;;;;;;5121263;27;20043;-46
2021/03/13 07:43:42;;;;;;;0.93;0.70;;;11.20;76.30;;;;;;5116894;27;20075;-48
2021/03/13 07:46:09;;;;;;;0.40;0.40;;;11.20;76.30;;;;;;5126342;27;20039;-45
2021/03/13 07:48:39;;;;;;;0.70;0.70;;;11.20;76.30;;;;;;5134870;27;20043;-51
2021/03/13 07:51:06;;;;;;;0.73;0.70;;;11.20;76.30;;;;;;5136836;27;20039;-46
2021/03/13 07:53:36;;;;;;;0.60;0.60;;;11.20;76.30;;;;;;5136478;27;20051;-47
2021/03/13 07:56:07;;;;;;;0.88;0.50;;;11.20;76.30;;;;;;5136859;27;20055;-46
2021/03/13 07:58:32;;;;;;;0.88;0.63;;;11.20;76.30;;;;;;5125617;27;20044;-55
2021/03/13 08:00:59;;;;;;;0.47;0.47;;;11.20;76.30;;;;;;5117422;27;20086;-52
2021/03/13 08:03:28;;;;;;;0.73;0.63;;;11.20;76.30;;;;;;5116414;28;20040;-45
2021/03/13 08:05:58;;;;;;;1.10;0.60;;;11.20;76.30;;;;;;5116385;27;20134;-48
2021/03/13 08:08:34;;;;;;;1.65;0.95;;;11.20;76.30;;;;;;5125009;27;20079;-44
2021/03/13 08:11:00;;;;;;;0.55;0.55;;;11.20;76.30;;;;;;5134951;27;20097;-48
2021/03/13 08:13:25;;;;;;;0.40;0.40;;;11.20;76.30;;;;;;5126934;27;20047;-47
2021/03/13 08:15:51;;;;;;;1.15;0.60;;;11.20;76.30;;;;;;5127446;27;20039;-52
2021/03/13 08:18:49;;;;;;;0.90;0.65;;;11.20;76.30;;;;;;5120786;27;20039;-59
2021/03/13 08:21:17;;;;;;;0.75;0.63;;;11.20;76.30;;;;;;5116171;27;20058;-49
2021/03/13 08:23:53;;;;;;;1.42;0.50;;;11.20;76.30;;;;;;5130585;27;20151;-57
2021/03/13 08:26:33;;;;;;;1.60;0.47;;;11.20;76.30;;;;;;5125363;27;20051;-51
2021/03/13 08:28:59;;;;;;;0.60;0.60;;;11.20;76.30;;;;;;5134181;27;20039;-61
2021/03/13 08:31:24;;;;;;;0.88;0.47;;;11.20;76.30;;;;;;5136408;27;20043;-59
2021/03/13 08:33:57;;;;;;;2.05;0.65;;;11.20;76.40;;;;;;5117797;27;20051;-63
2021/03/13 08:36:27;;;;;;;1.00;0.57;;;11.20;76.30;;;;;;5115795;28;20411;-58
2021/03/13 08:39:04;;;;;;;0.68;0.40;;;11.20;76.30;;;;;;5126768;27;20043;-56
2021/03/13 08:41:42;;;;;;;2.10;0.70;;;11.20;76.30;;;;;;5135653;27;20092;-53
2021/03/13 08:44:13;;;;;;;2.15;0.63;;;11.30;76.40;;;;;;5120015;27;20134;-53
2021/03/13 08:46:54;;;;;;;0.50;0.50;;;11.20;76.30;;;;;;5122743;27;20056;-50
2021/03/13 08:49:26;;;;;;;1.88;0.57;;;11.30;76.30;;;;;;5122840;27;20051;-53
2021/03/13 08:52:10;;;;;;;1.00;0.60;;;11.30;76.30;;;;;;5115548;27;20047;-51
2021/03/13 08:54:39;;;;;;;0.57;0.50;;;11.20;76.30;;;;;;5116371;27;20055;-58
2021/03/13 08:57:24;;;;;;;1.65;0.80;;;11.20;76.20;;;;;;5115024;28;20410;-50
2021/03/13 08:59:55;;;;;;;1.20;0.90;;;11.30;76.30;;;;;;5116271;27;20062;-55
2021/03/13 09:02:22;;;;;;;2.80;0.75;;;11.30;76.30;;;;;;5115385;28;20055;-59
2021/03/13 09:04:50;;;;;;;1.10;0.75;;;11.20;76.20;;;;;;5116133;28;20047;-58
2021/03/13 09:07:19;;;;;;;1.50;0.60;;;11.30;76.20;;;;;;5111533;27;20120;-54
2021/03/13 09:09:45;;;;;;;1.52;0.70;;;11.30;76.20;;;;;;5123628;27;20047;-43
2021/03/13 09:12:15;;;;;;;1.38;0.85;;;11.30;76.20;;;;;;5118510;27;20150;-49
2021/03/13 09:14:53;;;;;;;1.75;0.85;;;11.30;76.20;;;;;;5121049;27;20094;-50
2021/03/13 09:17:24;;;;;;;1.15;0.57;;;11.30;76.20;;;;;;5126297;27;20142;-48
2021/03/13 09:19:51;;;;;;;0.93;0.60;;;11.30;76.10;;;;;;5123820;27;20397;-58
2021/03/13 09:22:19;;;;;;;0.57;0.55;;;11.30;76.80;;;;;;5126411;27;20134;-48
2021/03/13 09:24:55;;;;;;;1.27;0.65;;;11.30;76.10;;;;;;5123160;27;20098;-54
2021/03/13 09:27:26;;;;;;;2.28;0.80;;;11.30;76.10;;;;;;5124221;27;20074;-58
2021/03/13 09:29:56;;;;;;;1.55;0.70;;;11.30;76.10;;;;;;5123669;27;20039;-46
2021/03/13 09:32:23;;;;;;;1.45;0.80;;;11.30;76.10;;;;;;5124679;27;20096;-47
2021/03/13 09:34:51;;;;;;;1.42;0.70;;;11.30;76.10;;;;;;5124450;27;20039;-52
2021/03/13 09:37:23;;;;;;;1.42;0.70;;;11.40;76.10;;;;;;5125394;27;20076;-54
2021/03/13 09:39:53;;;;;;;1.10;0.70;;;11.30;76.00;;;;;;5123320;27;20051;-53
2021/03/13 09:42:24;;;;;;;3.35;0.77;;;11.30;76.10;;;;;;5122997;27;20050;-50
2021/03/13 09:44:54;;;;;;;1.33;0.65;;;11.30;76.00;;;;;;5123372;27;20047;-49
2021/03/13 09:47:40;;;;;;;2.90;0.98;;;11.40;76.10;;;;;;5121817;27;20044;-59
2021/03/13 09:50:14;;;;;;;0.68;0.55;;;11.40;76.10;;;;;;5123840;27;20419;-47
2021/03/13 09:52:51;;;;;;;1.45;0.60;;;11.40;76.10;;;;;;5122403;27;20063;-47
2021/03/13 09:55:19;;;;;;;1.95;0.60;;;11.40;76.00;;;;;;5123659;27;20047;-47
2021/03/13 09:58:05;;;;;;;1.23;1.08;;;11.40;76.00;;;;;;5123437;27;20050;-47
2021/03/13 10:00:41;;;;;;;;;;;11.40;76.00;;;;;;5120462;27;20058;-47
2021/03/13 10:03:12;;;;;;;0.60;0.60;;;11.40;76.00;;;;;;5124580;27;20359;-47
2021/03/13 10:05:39;;;;;;;2.28;0.90;;;11.40;76.00;;;;;;5123858;27;20082;-49
2021/03/13 10:08:06;;;;;;;1.92;0.70;;;11.40;76.00;;;;;;5122460;27;20084;-57
2021/03/13 10:10:32;;;;;;;1.15;0.60;;;11.40;76.00;;;;;;5123181;27;20410;-50
2021/03/13 10:13:04;;;;;;;0.90;0.80;;;11.40;75.90;;;;;;5122713;27;20039;-51
2021/03/13 10:15:32;;;;;;;1.08;0.60;;;11.40;76.00;;;;;;5122243;27;20044;-46
2021/03/13 10:18:10;;;;;;;1.42;1.00;;;11.50;76.00;;;;;;5124968;27;20115;-54
2021/03/13 10:20:37;;;;;;;1.17;0.70;;;11.40;75.90;;;;;;5123679;27;20055;-49
2021/03/13 10:23:09;;;;;;;0.45;0.40;;;11.40;75.90;;;;;;5121838;27;20093;-55
2021/03/13 10:25:37;;;;;;;1.33;0.82;;;11.40;75.90;;;;;;5122541;27;20050;-50
2021/03/13 10:28:07;;;;;;;1.65;0.88;;;11.40;75.90;;;;;;5121467;27;20512;-47
2021/03/13 10:30:34;;;;;;;1.25;0.70;;;11.40;75.90;;;;;;5126044;27;20043;-53
2021/03/13 10:33:00;;;;;;;3.10;0.98;;;11.50;75.90;;;;;;5122359;27;20522;-49
2021/03/13 10:35:31;;;;;;;1.60;0.63;;;11.50;75.90;;;;;;5124881;27;20043;-50
2021/03/13 10:38:15;;;;;;;1.30;0.63;;;11.50;75.90;;;;;;5123007;27;20099;-54
2021/03/13 10:40:44;;;;;;;1.80;0.82;;;11.50;75.90;;;;;;5122825;27;20047;-51
2021/03/13 10:43:19;;;;;;;1.23;0.70;;;11.50;75.90;;;;;;5120293;27;20044;-52
2021/03/13 10:45:56;;;;;;;2.55;0.90;;;11.50;75.90;;;;;;5123110;27;20562;-47
2021/03/13 10:48:27;;;;;;;2.78;0.93;;;11.50;75.90;;;;;;5133814;27;20078;-54
2021/03/13 10:50:55;;;;;;;2.50;1.25;;;11.50;75.90;;;;;;5118164;28;20513;-46
2021/03/13 10:53:33;;;;;;;0.98;0.55;;;11.50;75.90;;;;;;5115360;28;20047;-51
2021/03/13 10:56:07;;;;;;;1.80;0.70;;;11.50;75.80;;;;;;5124415;28;20048;-51
2021/03/13 10:58:38;;;;;;;2.75;1.30;;;11.50;75.80;;;;;;5120999;28;20494;-48
2021/03/13 11:01:07;;;;;;;1.08;0.50;;;11.50;75.80;;;;;;5117590;28;20055;-47
2021/03/13 11:03:33;;;;;;;1.17;0.68;;;11.50;75.80;;;;;;5118686;28;20081;-49
2021/03/13 11:05:59;;;;;;;1.10;0.50;;;11.50;75.80;;;;;;5114056;28;20475;-46
2021/03/13 11:08:28;;;;;;;1.70;0.90;;;11.50;75.80;;;;;;5120508;28;20040;-50
2021/03/13 11:10:55;;;;;;;2.00;0.70;;;11.50;75.80;;;;;;5118854;27;20062;-52
2021/03/13 11:13:23;;;;;;;2.70;0.85;;;11.50;75.80;;;;;;5125632;27;20111;-46
2021/03/13 11:15:49;;;;;;;1.50;0.70;;;11.60;75.80;;;;;;5126294;27;20122;-50
2021/03/13 11:18:15;;;;;;;0.85;0.65;;;11.50;75.70;;;;;;5126268;27;20063;-45
2021/03/13 11:20:41;;;;;;;1.42;0.75;;;11.50;75.70;;;;;;5127791;27;20071;-45
2021/03/13 11:23:07;;;;;;;1.15;0.70;;;11.60;75.80;;;;;;5125568;27;20096;-46
2021/03/13 11:25:33;;;;;;;1.08;0.80;;;11.60;75.70;;;;;;5130690;27;20464;-51
2021/03/13 11:27:59;;;;;;;1.02;0.90;;;11.60;75.70;;;;;;5136216;27;20065;-49
2021/03/13 11:30:26;;;;;;;2.17;0.70;;;11.60;75.70;;;;;;5136723;27;20047;-46
2021/03/13 11:32:52;;;;;;;0.82;0.60;;;11.60;75.70;;;;;;5136338;27;20108;-48
2021/03/13 11:35:22;;;;;;;2.88;0.68;;;11.60;75.70;;;;;;5136353;27;20043;-45
2021/03/13 11:37:51;;;;;;;1.60;0.70;;;11.60;75.70;;;;;;5136120;27;20035;-52
2021/03/13 11:40:19;;;;;;;2.13;0.80;;;11.60;75.70;;;;;;5136361;27;20070;-52
2021/03/13 11:42:46;;;;;;;1.35;1.00;;;11.60;75.70;;;;;;5135265;27;20499;-55
2021/03/13 11:45:13;;;;;;;2.13;0.75;;;11.60;75.70;;;;;;5136383;27;20491;-56
2021/03/13 11:47:39;;;;;;;1.75;0.80;;;11.60;75.70;;;;;;5135831;27;20418;-54
2021/03/13 11:50:07;;;;;;;1.65;0.63;;;11.60;75.70;;;;;;5136368;27;20122;-56
2021/03/13 11:52:33;;;;;;;1.65;0.82;;;11.60;75.70;;;;;;5136187;27;20043;-54
2021/03/13 11:54:59;;;;;;;1.55;0.75;;;11.60;75.70;;;;;;5135806;27;20043;-52
2021/03/13 11:57:25;;;;;;;2.20;0.70;;;11.60;75.60;;;;;;5135359;27;20054;-56
2021/03/13 11:59:51;;;;;;;1.60;0.80;;;11.60;75.60;;;;;;5135924;27;20043;-52
2021/03/13 12:02:17;;;;;;;1.35;0.65;;;11.60;75.60;;;;;;5135821;27;20089;-57
2021/03/13 12:04:43;;;;;;;3.38;0.93;;;11.60;75.60;;;;;;5135367;27;20139;-56
2021/03/13 12:07:10;;;;;;;1.73;0.88;;;11.60;75.60;;;;;;5135063;27;20046;-53
2021/03/13 12:09:36;;;;;;;1.20;0.68;;;11.60;75.60;;;;;;5135579;27;20051;-58
2021/03/13 12:12:05;;;;;;;1.45;1.30;;;11.60;75.60;;;;;;5134211;27;20051;-53
2021/03/13 12:14:31;;;;;;;2.47;0.80;;;11.60;75.60;;;;;;5135806;27;20058;-53
2021/03/13 12:16:56;;;;;;;2.35;1.35;;;11.60;75.60;;;;;;5135067;27;20549;-49
2021/03/13 12:19:22;;;;;;;1.67;0.70;;;11.60;75.60;;;;;;5135246;27;20051;-49
2021/03/13 12:21:49;;;;;;;0.63;0.47;;;11.60;75.60;;;;;;5129563;27;20118;-56
2021/03/13 12:24:16;;;;;;;2.20;0.80;;;11.60;75.60;;;;;;5128793;27;20044;-48
2021/03/13 12:26:42;;;;;;;1.70;0.70;;;11.60;75.60;;;;;;5134773;27;20410;-53
2021/03/13 12:29:08;;;;;;;1.42;0.73;;;11.60;75.60;;;;;;5134123;27;20039;-52
2021/03/13 12:31:34;;;;;;;1.02;0.40;;;11.70;75.60;;;;;;5135584;27;20054;-57
2021/03/13 12:34:00;;;;;;;2.22;0.88;;;11.60;75.60;;;;;;5132383;27;20451;-50
2021/03/13 12:36:25;;;;;;;1.10;0.68;;;11.60;75.60;;;;;;5129326;27;20054;-52
2021/03/13 12:38:51;;;;;;;1.33;0.60;;;11.70;75.60;;;;;;5131455;27;20126;-50
2021/03/13 12:41:17;;;;;;;1.45;0.70;;;11.70;75.60;;;;;;5131873;27;20070;-52
2021/03/13 12:43:43;;;;;;;1.88;0.98;;;11.60;75.60;;;;;;5132169;27;20085;-55
2021/03/13 12:46:14;;;;;;;1.63;0.50;;;11.70;75.60;;;;;;5135232;27;20081;-54
2021/03/13 12:48:41;;;;;;;1.38;0.73;;;11.60;75.60;;;;;;5133942;27;20069;-52
2021/03/13 12:51:07;;;;;;;1.02;0.47;;;11.70;75.60;;;;;;5134847;27;20043;-54
2021/03/13 12:53:33;;;;;;;1.85;0.70;;;11.70;75.60;;;;;;5135024;27;20047;-58
2021/03/13 12:55:58;;;;;;;1.65;0.80;;;11.70;75.60;;;;;;5135006;27;20061;-58
2021/03/13 12:58:25;;;;;;;0.95;0.50;;;11.70;75.60;;;;;;5134970;27;20047;-58